Cardiff By The Sea, California
Current Conditions -  °F | °C
As of 4:53 PM on Monday 20 Oct 2014 (Local Time) from KCRQ Reporting Station
Scattered Clouds Scattered Clouds  
Wind Chill: 69°   Ceiling: Unl
Heat Index: 69°   Visibility: 10mi
Dew Point: 60°   Wind: 5mph
Humidity: 73%   Direction: NA
Pressure: 29.87"   Gusts: NA
Location:  33.02°N, 117.28°W
Report Text: KCRQ 202353Z VRB04KT 10SM SCT016 21/16 A2987 RMK AO2 SLP112 T02060156 10222 20206 55001
Loading
Personal Weather Stations






























Interactive Weather Map
Tropical Storm Tracking
New forecast layout! Learn more

10-Day Weather Forecast

Advertisements
Track Severe Weather on mobile